Time;durP1;ratioP1;P1;durP2;ratioP2;P2;SDS_P1;SDS_P2;PMS_P1;PMS_P2;Temp;Humidity;BMP_temperature;BMP_pressure;BME280_temperature;BME280_humidity;BME280_pressure;Samples;Min_cycle;Max_cycle;Signal;HPM_P1;HPM_P2
2023/09/24 00:02:13;;;;;;;2.85;1.90;;;13.40;99.90;;;;;;5064106;28;20045;-59
2023/09/24 00:04:39;;;;;;;3.65;2.17;;;13.30;99.90;;;;;;5061655;28;20089;-60
2023/09/24 00:07:05;;;;;;;2.92;1.38;;;13.30;99.90;;;;;;5063329;28;20079;-59
2023/09/24 00:09:31;;;;;;;3.83;1.45;;;13.30;99.90;;;;;;5060054;28;20045;-57
2023/09/24 00:11:58;;;;;;;1.35;1.10;;;13.30;99.90;;;;;;5062663;28;20064;-60
2023/09/24 00:14:26;;;;;;;3.55;2.15;;;13.20;99.90;;;;;;5063356;28;20048;-60
2023/09/24 00:16:52;;;;;;;3.03;1.77;;;13.20;99.90;;;;;;5053399;28;20535;-60
2023/09/24 00:19:17;;;;;;;2.78;2.50;;;13.20;99.90;;;;;;5052313;28;20044;-59
2023/09/24 00:21:43;;;;;;;6.05;2.55;;;13.20;99.90;;;;;;5052574;28;20036;-60
2023/09/24 00:24:10;;;;;;;3.67;2.55;;;13.20;99.90;;;;;;5055270;28;20052;-59
2023/09/24 00:26:36;;;;;;;2.75;2.53;;;13.10;99.90;;;;;;5057251;28;20116;-60
2023/09/24 00:29:03;;;;;;;4.78;2.95;;;13.10;99.90;;;;;;5060154;28;20246;-60
2023/09/24 00:31:29;;;;;;;5.55;3.35;;;13.20;99.90;;;;;;5058310;28;20452;-59
2023/09/24 00:33:55;;;;;;;3.83;2.33;;;13.10;99.90;;;;;;5058857;28;20041;-60
2023/09/24 00:36:22;;;;;;;5.93;3.42;;;13.10;99.90;;;;;;5057176;28;20102;-60
2023/09/24 00:38:49;;;;;;;4.55;3.03;;;13.10;99.90;;;;;;5054779;28;20048;-59
2023/09/24 00:41:15;;;;;;;56.80;6.35;;;13.10;99.90;;;;;;5058910;28;20072;-59
2023/09/24 00:43:43;;;;;;;;;;;13.10;99.90;;;;;;5058544;28;20152;-57
2023/09/24 00:46:11;;;;;;;141.55;8.38;;;13.10;99.90;;;;;;5062130;28;19916;-59
2023/09/24 00:48:38;;;;;;;13.55;3.53;;;13.00;99.90;;;;;;5057440;28;20037;-60
2023/09/24 00:51:19;;;;;;;238.68;11.18;;;12.90;99.90;;;;;;5064296;28;20533;-60
2023/09/24 00:53:51;;;;;;;210.93;10.07;;;12.80;99.90;;;;;;5058649;28;20045;-59
2023/09/24 00:56:17;;;;;;;212.43;9.20;;;12.60;99.90;;;;;;5063111;28;20556;-59
2023/09/24 00:58:46;;;;;;;174.85;9.52;;;12.70;99.90;;;;;;5055364;28;20041;-59
2023/09/24 01:01:12;;;;;;;147.60;8.30;;;12.60;99.90;;;;;;5056191;28;20071;-57
2023/09/24 01:03:40;;;;;;;103.60;7.25;;;12.60;99.90;;;;;;5055634;28;20068;-59
2023/09/24 01:06:06;;;;;;;80.97;6.38;;;12.60;99.90;;;;;;5061507;28;20463;-57
2023/09/24 01:08:33;;;;;;;;;;;12.60;99.90;;;;;;5057277;28;20406;-56
2023/09/24 01:11:00;;;;;;;72.72;6.90;;;12.60;99.90;;;;;;5058480;28;19917;-60
2023/09/24 01:13:40;;;;;;;65.05;6.60;;;12.60;99.90;;;;;;5058886;28;20491;-57
2023/09/24 01:16:07;;;;;;;118.15;8.20;;;12.60;99.90;;;;;;5059817;28;20465;-59
2023/09/24 01:18:42;;;;;;;155.90;8.85;;;12.60;99.90;;;;;;5051942;28;20095;-57
2023/09/24 01:21:14;;;;;;;112.70;8.63;;;12.50;99.90;;;;;;5053266;28;20068;-60
2023/09/24 01:23:42;;;;;;;103.97;8.38;;;12.50;99.90;;;;;;5052701;28;20037;-58
2023/09/24 01:26:11;;;;;;;120.57;8.60;;;12.50;99.90;;;;;;5066935;28;20041;-59
2023/09/24 01:28:37;;;;;;;98.75;8.90;;;12.50;99.90;;;;;;5059280;28;20040;-59
2023/09/24 01:31:03;;;;;;;52.67;6.78;;;12.50;99.90;;;;;;5060281;28;20043;-59
2023/09/24 01:33:31;;;;;;;119.00;7.93;;;12.50;99.90;;;;;;5058804;28;20048;-58
2023/09/24 01:35:57;;;;;;;133.73;9.57;;;12.40;99.90;;;;;;5051797;28;20060;-57
2023/09/24 01:38:23;;;;;;;22.13;5.82;;;12.40;99.90;;;;;;5060746;28;20131;-58
2023/09/24 01:40:49;;;;;;;98.90;8.77;;;12.50;99.90;;;;;;5054637;28;20123;-58
2023/09/24 01:43:14;;;;;;;208.60;12.45;;;12.50;99.90;;;;;;5059383;28;20102;-59
2023/09/24 01:45:41;;;;;;;108.70;8.43;;;12.40;99.90;;;;;;5057954;28;20032;-58
2023/09/24 01:48:07;;;;;;;;;;;12.40;99.90;;;;;;5062365;28;20106;-59
2023/09/24 01:50:35;;;;;;;71.95;7.78;;;12.40;99.90;;;;;;5060511;28;19917;-57
2023/09/24 01:53:01;;;;;;;46.75;5.88;;;12.50;99.90;;;;;;5060040;28;20044;-60
2023/09/24 01:55:28;;;;;;;125.72;8.48;;;12.40;99.90;;;;;;5060411;28;20044;-59
2023/09/24 01:57:55;;;;;;;124.97;9.13;;;12.40;99.90;;;;;;5059603;28;20356;-59
2023/09/24 02:00:23;;;;;;;76.65;7.43;;;12.40;99.90;;;;;;5060848;28;20060;-58
2023/09/24 02:03:00;;;;;;;123.55;9.35;;;12.40;99.90;;;;;;5060938;28;20045;-58
2023/09/24 02:05:35;;;;;;;;;;;12.40;99.90;;;;;;5063416;28;20032;-59
2023/09/24 02:08:09;;;;;;;127.30;8.65;;;12.30;99.90;;;;;;5060908;28;19917;-60
2023/09/24 02:10:40;;;;;;;5.25;4.75;;;12.30;99.90;;;;;;5054561;28;20053;-59
2023/09/24 02:13:07;;;;;;;27.65;4.28;;;12.30;99.90;;;;;;5061362;28;20495;-60
2023/09/24 02:15:33;;;;;;;30.95;5.28;;;12.30;99.90;;;;;;5054601;28;20040;-59
2023/09/24 02:17:59;;;;;;;35.63;4.60;;;12.30;99.90;;;;;;5054262;28;20546;-58
2023/09/24 02:20:27;;;;;;;6.90;3.72;;;12.30;99.90;;;;;;5052906;28;20116;-59
2023/09/24 02:22:56;;;;;;;5.70;3.83;;;12.30;99.90;;;;;;5052211;28;20420;-59
2023/09/24 02:25:26;;;;;;;5.20;4.70;;;12.30;99.90;;;;;;5050484;28;20037;-60
2023/09/24 02:27:52;;;;;;;5.68;4.10;;;12.20;99.90;;;;;;5060001;28;20041;-59
2023/09/24 02:30:22;;;;;;;6.18;4.15;;;12.20;99.90;;;;;;5056674;28;20036;-59
2023/09/24 02:32:47;;;;;;;4.55;4.03;;;12.20;99.90;;;;;;5059072;28;20083;-58
2023/09/24 02:35:14;;;;;;;5.13;3.67;;;12.20;99.90;;;;;;5062229;28;20462;-58
2023/09/24 02:37:40;;;;;;;5.65;4.47;;;12.20;99.90;;;;;;5054349;28;20040;-59
2023/09/24 02:40:19;;;;;;;8.05;4.53;;;12.10;99.90;;;;;;5061846;28;20036;-59
2023/09/24 02:42:46;;;;;;;9.68;4.68;;;12.10;99.90;;;;;;5058827;28;20509;-58
2023/09/24 02:45:15;;;;;;;8.05;4.85;;;12.00;99.90;;;;;;5059890;28;20088;-57
2023/09/24 02:47:41;;;;;;;6.25;4.57;;;12.00;99.90;;;;;;5060686;28;20036;-60
2023/09/24 02:50:13;;;;;;;11.43;5.25;;;11.90;99.90;;;;;;5066090;28;20036;-57
2023/09/24 02:52:46;;;;;;;7.22;4.88;;;11.90;99.90;;;;;;5064022;28;20063;-59
2023/09/24 02:55:15;;;;;;;6.32;5.15;;;11.80;99.90;;;;;;5060434;28;20051;-57
2023/09/24 02:57:44;;;;;;;5.70;4.80;;;11.80;99.90;;;;;;5058720;28;20410;-58
2023/09/24 03:00:12;;;;;;;8.00;5.18;;;11.80;99.90;;;;;;5060556;28;20049;-59
2023/09/24 03:02:39;;;;;;;6.18;4.75;;;11.80;99.90;;;;;;5060982;28;20511;-59
2023/09/24 03:05:12;;;;;;;10.98;6.45;;;11.80;99.90;;;;;;5065495;28;20048;-59
2023/09/24 03:07:40;;;;;;;5.32;4.55;;;11.80;99.90;;;;;;5064416;28;20067;-59
2023/09/24 03:10:09;;;;;;;7.85;4.50;;;11.80;99.90;;;;;;5062309;28;20044;-59
2023/09/24 03:12:34;;;;;;;8.80;4.90;;;11.80;99.90;;;;;;5061608;28;20048;-57
2023/09/24 03:15:01;;;;;;;9.15;5.68;;;11.80;99.90;;;;;;5063155;28;20377;-59
2023/09/24 03:17:27;;;;;;;9.18;5.05;;;11.80;99.90;;;;;;5057749;28;20037;-57
2023/09/24 03:19:53;;;;;;;6.93;3.80;;;11.90;99.90;;;;;;5055592;28;20041;-59
2023/09/24 03:22:21;;;;;;;7.43;4.63;;;11.80;99.90;;;;;;5055746;28;20079;-59
2023/09/24 03:24:50;;;;;;;6.55;4.97;;;11.80;99.90;;;;;;5056232;28;20116;-57
2023/09/24 03:27:15;;;;;;;9.98;5.43;;;11.90;99.90;;;;;;5059918;28;20120;-58
2023/09/24 03:29:43;;;;;;;8.35;5.00;;;11.90;99.90;;;;;;5059407;28;20123;-59
2023/09/24 03:32:09;;;;;;;7.43;4.25;;;11.80;99.90;;;;;;5060673;28;20101;-59
2023/09/24 03:34:35;;;;;;;10.40;5.35;;;11.80;99.90;;;;;;5060135;28;20048;-59
2023/09/24 03:37:00;;;;;;;6.70;4.95;;;11.80;99.90;;;;;;5062136;28;20073;-58
2023/09/24 03:39:26;;;;;;;9.30;4.80;;;11.70;99.90;;;;;;5059413;28;20123;-58
2023/09/24 03:41:52;;;;;;;7.35;4.70;;;11.70;99.90;;;;;;5057182;28;20062;-57
2023/09/24 03:44:17;;;;;;;10.50;5.63;;;11.70;99.90;;;;;;5065229;28;20455;-59
2023/09/24 03:46:43;;;;;;;11.98;6.05;;;11.70;99.90;;;;;;5059532;28;20032;-59
2023/09/24 03:49:11;;;;;;;6.43;4.93;;;11.60;99.90;;;;;;5065602;28;20040;-59
2023/09/24 03:51:36;;;;;;;6.60;5.53;;;11.60;99.90;;;;;;5067609;28;20041;-59
2023/09/24 03:54:03;;;;;;;5.85;4.85;;;11.60;99.90;;;;;;5059385;28;20411;-59
2023/09/24 03:56:29;;;;;;;7.15;5.18;;;11.60;99.90;;;;;;5057649;28;20055;-59
2023/09/24 03:58:54;;;;;;;4.80;4.30;;;11.60;99.90;;;;;;5060404;28;20029;-58
2023/09/24 04:01:20;;;;;;;11.55;6.00;;;11.60;99.90;;;;;;5063254;28;20055;-57
2023/09/24 04:03:46;;;;;;;8.95;5.60;;;11.60;99.90;;;;;;5060820;28;20044;-58
2023/09/24 04:06:12;;;;;;;11.45;5.43;;;11.50;99.90;;;;;;5058049;28;20483;-59
2023/09/24 04:08:38;;;;;;;7.13;5.60;;;11.50;99.90;;;;;;5057583;28;20471;-59
2023/09/24 04:11:13;;;;;;;;;;;11.50;99.90;;;;;;5062878;28;20044;-59
2023/09/24 04:13:39;;;;;;;8.95;6.00;;;11.50;99.90;;;;;;5056541;28;20042;-59
2023/09/24 04:16:09;;;;;;;5.53;4.95;;;11.50;99.90;;;;;;5061559;28;20514;-57
2023/09/24 04:18:35;;;;;;;8.57;5.28;;;11.50;99.90;;;;;;5052903;28;20040;-59
2023/09/24 04:21:01;;;;;;;13.23;6.25;;;11.50;99.90;;;;;;5053341;28;20041;-59
2023/09/24 04:23:27;;;;;;;;;;;11.50;99.90;;;;;;5055075;28;20109;-59
2023/09/24 04:25:54;;;;;;;10.13;5.82;;;11.50;99.90;;;;;;5054781;28;20403;-59
2023/09/24 04:28:20;;;;;;;12.68;7.03;;;11.50;99.90;;;;;;5063555;28;20044;-58
2023/09/24 04:30:46;;;;;;;9.10;6.18;;;11.50;99.90;;;;;;5021675;28;1066153;-59
2023/09/24 04:33:12;;;;;;;6.32;5.43;;;11.40;99.90;;;;;;5058874;28;20048;-59
2023/09/24 04:35:38;;;;;;;7.68;5.60;;;11.40;99.90;;;;;;5059078;28;20481;-59
2023/09/24 04:38:03;;;;;;;14.35;7.68;;;11.40;99.90;;;;;;5056974;28;20041;-59
2023/09/24 04:40:31;;;;;;;10.52;6.93;;;11.40;99.90;;;;;;5057256;28;20491;-58
2023/09/24 04:42:56;;;;;;;13.68;6.75;;;11.30;99.90;;;;;;5059294;28;20076;-58
2023/09/24 04:45:22;;;;;;;14.15;8.15;;;11.30;99.90;;;;;;5062093;28;20064;-58
2023/09/24 04:47:48;;;;;;;13.55;8.48;;;11.30;99.90;;;;;;5060627;28;20025;-59
2023/09/24 04:50:14;;;;;;;10.27;7.30;;;11.30;99.90;;;;;;5060709;28;20169;-59
2023/09/24 04:52:41;;;;;;;17.55;8.32;;;11.20;99.90;;;;;;5061780;28;20037;-58
2023/09/24 04:55:08;;;;;;;14.07;8.00;;;11.20;99.90;;;;;;5062580;28;20044;-59
2023/09/24 04:57:34;;;;;;;15.40;8.20;;;11.20;99.90;;;;;;5063404;28;20079;-58
2023/09/24 05:00:00;;;;;;;15.93;8.73;;;11.20;99.90;;;;;;5061007;28;20080;-57
2023/09/24 05:02:26;;;;;;;12.65;8.48;;;11.20;99.90;;;;;;5062431;28;20081;-59
2023/09/24 05:04:52;;;;;;;11.98;8.50;;;11.20;99.90;;;;;;5057544;28;20166;-58
2023/09/24 05:07:18;;;;;;;;;;;11.20;99.90;;;;;;5062875;28;20119;-57
2023/09/24 05:09:44;;;;;;;15.77;8.25;;;11.10;99.90;;;;;;5056556;28;19920;-56
2023/09/24 05:12:12;;;;;;;13.23;8.68;;;11.10;99.90;;;;;;5058850;28;20131;-58
2023/09/24 05:14:38;;;;;;;13.88;9.07;;;11.10;99.90;;;;;;5060078;28;20490;-58
2023/09/24 05:17:03;;;;;;;16.70;10.38;;;11.10;99.90;;;;;;5059937;28;20064;-58
2023/09/24 05:19:29;;;;;;;14.97;9.57;;;11.10;99.90;;;;;;5054797;28;20100;-59
2023/09/24 05:21:54;;;;;;;11.47;9.33;;;11.10;99.90;;;;;;5056022;28;20279;-57
2023/09/24 05:24:20;;;;;;;10.40;9.02;;;11.10;99.90;;;;;;5054344;28;20291;-58
2023/09/24 05:26:46;;;;;;;11.53;9.10;;;11.10;99.90;;;;;;5057053;28;20041;-58
2023/09/24 05:29:11;;;;;;;14.77;9.60;;;11.00;99.90;;;;;;5062654;28;20354;-55
2023/09/24 05:31:38;;;;;;;14.32;9.40;;;10.90;99.90;;;;;;5060090;28;20084;-58
2023/09/24 05:34:06;;;;;;;14.93;10.38;;;11.00;99.90;;;;;;5063170;28;20048;-57
2023/09/24 05:36:32;;;;;;;17.98;9.88;;;11.00;99.90;;;;;;5059230;28;20123;-58
2023/09/24 05:38:58;;;;;;;18.52;9.95;;;11.00;99.90;;;;;;5060941;28;20044;-56
2023/09/24 05:41:24;;;;;;;16.00;10.43;;;11.00;99.90;;;;;;5060883;28;20056;-58
2023/09/24 05:43:50;;;;;;;13.77;9.43;;;11.00;99.90;;;;;;5057358;28;20068;-58
2023/09/24 05:46:16;;;;;;;12.18;9.32;;;11.00;99.90;;;;;;5060515;28;20064;-56
2023/09/24 05:48:43;;;;;;;17.30;8.98;;;11.10;99.90;;;;;;5055804;28;20033;-57
2023/09/24 05:51:08;;;;;;;15.38;8.82;;;11.20;99.90;;;;;;5058835;28;20050;-57
2023/09/24 05:53:34;;;;;;;15.55;8.38;;;11.40;99.90;;;;;;5053173;28;20037;-59
2023/09/24 05:56:02;;;;;;;12.43;8.10;;;11.60;99.90;;;;;;5053450;28;20521;-57
2023/09/24 05:58:28;;;;;;;13.88;7.40;;;11.80;99.90;;;;;;5062285;28;20048;-55
2023/09/24 06:00:56;;;;;;;10.32;7.43;;;12.00;99.90;;;;;;5068970;28;20032;-59
2023/09/24 06:03:22;;;;;;;15.43;8.55;;;12.30;99.90;;;;;;5060682;28;20025;-58
2023/09/24 06:05:48;;;;;;;8.10;7.30;;;12.40;99.90;;;;;;5059229;28;20052;-59
2023/09/24 06:08:13;;;;;;;11.15;7.13;;;12.60;99.90;;;;;;5063783;28;20045;-59
2023/09/24 06:10:44;;;;;;;11.43;7.57;;;12.80;99.90;;;;;;5059681;28;20064;-59
2023/09/24 06:13:12;;;;;;;7.75;6.60;;;13.00;99.90;;;;;;5056759;28;20044;-57
2023/09/24 06:15:37;;;;;;;8.57;6.75;;;13.30;99.90;;;;;;5052030;28;20055;-57
2023/09/24 06:18:03;;;;;;;13.20;6.05;;;13.40;99.90;;;;;;5053222;28;20111;-58
2023/09/24 06:20:29;;;;;;;8.60;6.13;;;13.70;99.90;;;;;;5051377;28;20048;-57
2023/09/24 06:22:57;;;;;;;9.38;6.95;;;13.90;99.90;;;;;;5053136;28;20041;-58
2023/09/24 06:25:23;;;;;;;10.13;6.75;;;14.00;99.90;;;;;;5054156;28;20037;-58
2023/09/24 06:27:48;;;;;;;12.40;7.38;;;14.10;99.90;;;;;;5062926;28;20037;-57
2023/09/24 06:30:14;;;;;;;10.40;6.22;;;14.10;99.90;;;;;;5043225;28;20055;-58
2023/09/24 06:32:40;;;;;;;12.50;7.15;;;14.10;99.90;;;;;;5052437;28;20037;-58
2023/09/24 06:35:06;;;;;;;12.23;6.82;;;14.10;99.90;;;;;;5047278;28;20115;-58
2023/09/24 06:37:31;;;;;;;10.80;7.35;;;13.90;99.90;;;;;;5058338;28;20044;-58
2023/09/24 06:39:58;;;;;;;11.45;7.43;;;13.70;99.90;;;;;;5056670;28;20052;-58
2023/09/24 06:42:23;;;;;;;11.10;7.78;;;13.50;99.90;;;;;;5053318;28;20079;-58
2023/09/24 06:44:50;;;;;;;10.32;7.15;;;13.30;99.90;;;;;;5053080;28;20411;-58
2023/09/24 06:47:16;;;;;;;14.15;8.05;;;13.20;99.90;;;;;;5050753;28;20645;-58
2023/09/24 06:49:42;;;;;;;13.13;7.10;;;13.20;99.90;;;;;;5053636;28;20127;-58
2023/09/24 06:52:08;;;;;;;9.73;7.63;;;13.10;99.90;;;;;;5051203;28;20040;-58
2023/09/24 06:54:34;;;;;;;15.80;7.90;;;13.10;99.90;;;;;;5049771;28;20048;-56
2023/09/24 06:56:59;;;;;;;12.48;7.53;;;13.10;99.90;;;;;;5058410;28;20056;-58
2023/09/24 06:59:25;;;;;;;13.10;8.40;;;13.10;99.90;;;;;;5061937;28;20040;-58
2023/09/24 07:01:53;;;;;;;10.93;7.97;;;13.10;99.90;;;;;;5061512;28;20033;-56
2023/09/24 07:04:18;;;;;;;11.43;7.70;;;13.10;99.90;;;;;;5066605;28;20075;-56
2023/09/24 07:06:44;;;;;;;11.25;7.57;;;13.10;99.90;;;;;;5061830;28;20032;-58
2023/09/24 07:09:10;;;;;;;11.00;8.38;;;13.10;99.90;;;;;;5070003;28;20040;-58
2023/09/24 07:11:36;;;;;;;11.05;8.20;;;13.00;99.90;;;;;;5065370;28;20037;-58
2023/09/24 07:14:04;;;;;;;12.07;7.57;;;13.00;99.90;;;;;;5052690;28;20048;-58
2023/09/24 07:16:30;;;;;;;11.07;7.30;;;13.00;99.90;;;;;;5059645;28;20048;-58
2023/09/24 07:18:57;;;;;;;;;;;13.10;99.90;;;;;;5061336;28;20041;-58
2023/09/24 07:21:26;;;;;;;10.90;7.37;;;13.00;99.90;;;;;;5062003;28;19928;-56
2023/09/24 07:23:55;;;;;;;10.38;7.80;;;13.10;99.90;;;;;;5053396;28;20322;-56
2023/09/24 07:26:23;;;;;;;11.57;7.30;;;13.10;99.90;;;;;;5049887;28;20128;-56
2023/09/24 07:28:49;;;;;;;9.55;7.35;;;13.10;99.90;;;;;;5051879;28;20452;-58
2023/09/24 07:31:21;;;;;;;10.45;7.70;;;13.10;99.90;;;;;;5055746;28;20436;-60
2023/09/24 07:33:48;;;;;;;8.60;7.70;;;13.10;99.90;;;;;;5056411;28;20059;-59
2023/09/24 07:36:14;;;;;;;12.07;7.63;;;13.20;99.90;;;;;;5065976;28;20418;-58
2023/09/24 07:38:40;;;;;;;;;;;13.20;99.90;;;;;;5063377;28;20230;-59
2023/09/24 07:41:10;;;;;;;11.25;7.43;;;13.20;99.90;;;;;;5059563;28;19935;-60
2023/09/24 07:43:42;;;;;;;12.07;7.65;;;13.30;99.90;;;;;;5056440;28;20490;-60
2023/09/24 07:46:12;;;;;;;10.93;7.85;;;13.30;99.90;;;;;;5056517;28;20111;-59
2023/09/24 07:48:39;;;;;;;17.27;7.25;;;13.40;99.90;;;;;;5058645;28;20079;-59
2023/09/24 07:51:05;;;;;;;14.68;7.97;;;13.50;99.90;;;;;;5052634;28;20594;-60
2023/09/24 07:53:31;;;;;;;10.52;7.70;;;13.60;99.90;;;;;;5055595;28;20038;-57
2023/09/24 07:55:57;;;;;;;10.98;6.90;;;13.70;99.90;;;;;;5058353;28;20557;-57
2023/09/24 07:58:24;;;;;;;9.48;6.82;;;13.70;99.90;;;;;;5046478;28;20518;-57
2023/09/24 08:00:52;;;;;;;;;;;13.70;99.90;;;;;;5045960;28;20128;-56
2023/09/24 08:03:19;;;;;;;10.57;7.65;;;13.80;99.90;;;;;;5057576;28;20534;-57
2023/09/24 08:05:44;;;;;;;9.48;7.18;;;13.90;99.90;;;;;;5063624;28;20040;-57
2023/09/24 08:08:10;;;;;;;10.38;7.30;;;14.00;99.90;;;;;;5060137;28;20469;-57
2023/09/24 08:10:36;;;;;;;11.18;7.43;;;14.10;99.90;;;;;;5061279;28;20047;-55
2023/09/24 08:13:05;;;;;;;15.23;7.97;;;14.10;99.90;;;;;;5054851;28;20037;-57
2023/09/24 08:15:31;;;;;;;12.45;7.50;;;14.20;99.90;;;;;;5051839;28;20037;-57
2023/09/24 08:17:56;;;;;;;10.73;6.53;;;14.20;99.90;;;;;;5052453;28;20037;-57
2023/09/24 08:20:22;;;;;;;11.40;7.22;;;14.30;99.90;;;;;;5058773;28;20044;-56
2023/09/24 08:22:48;;;;;;;11.20;7.18;;;14.30;99.90;;;;;;5052222;28;20494;-57
2023/09/24 08:25:14;;;;;;;12.63;8.95;;;14.30;99.90;;;;;;5056485;28;20181;-57
2023/09/24 08:27:40;;;;;;;;;;;14.40;99.90;;;;;;5055074;28;20036;-57
2023/09/24 08:30:06;;;;;;;10.30;6.65;;;14.50;99.90;;;;;;5061765;28;20027;-57
2023/09/24 08:32:32;;;;;;;12.82;6.95;;;14.60;99.90;;;;;;5067121;28;20041;-57
2023/09/24 08:34:57;;;;;;;11.30;7.43;;;14.60;99.90;;;;;;5051220;28;20021;-57
2023/09/24 08:37:23;;;;;;;11.55;7.22;;;14.70;99.90;;;;;;5053263;28;20048;-57
2023/09/24 08:39:48;;;;;;;9.85;6.30;;;14.80;99.90;;;;;;5055105;28;20040;-56
2023/09/24 08:42:18;;;;;;;10.23;6.45;;;14.90;99.90;;;;;;5051909;28;20036;-57
2023/09/24 08:44:52;;;;;;;9.07;6.00;;;14.90;99.90;;;;;;5050446;28;20040;-58
2023/09/24 08:47:19;;;;;;;12.75;7.00;;;15.00;99.90;;;;;;5054037;28;20052;-57
2023/09/24 08:49:48;;;;;;;9.90;6.13;;;15.00;99.90;;;;;;5054235;28;20053;-58
2023/09/24 08:52:17;;;;;;;11.43;6.45;;;15.10;99.90;;;;;;5057488;28;21193;-58
2023/09/24 08:54:45;;;;;;;11.10;6.65;;;15.20;99.90;;;;;;5055917;28;20499;-58
2023/09/24 08:57:11;;;;;;;11.50;6.00;;;15.30;99.90;;;;;;5066971;28;20052;-59
2023/09/24 08:59:36;;;;;;;10.75;5.40;;;15.40;99.90;;;;;;5073326;28;20388;-59
2023/09/24 09:02:03;;;;;;;7.82;4.38;;;15.50;99.90;;;;;;5060992;28;20044;-59
2023/09/24 09:04:28;;;;;;;;;;;15.50;99.90;;;;;;5052887;28;20503;-58
2023/09/24 09:06:56;;;;;;;11.32;5.57;;;15.70;99.90;;;;;;5054735;28;20004;-59
2023/09/24 09:09:27;;;;;;;13.57;4.63;;;15.70;99.90;;;;;;5062782;28;20513;-56
2023/09/24 09:11:52;;;;;;;12.02;4.68;;;15.80;99.90;;;;;;5058841;28;20033;-58
2023/09/24 09:14:35;;;;;;;11.27;4.88;;;15.90;99.90;;;;;;5062318;28;20035;-58
2023/09/24 09:17:02;;;;;;;6.57;4.70;;;15.90;99.90;;;;;;5058204;28;20397;-60
2023/09/24 09:19:29;;;;;;;8.43;4.00;;;15.90;99.90;;;;;;5055215;28;20138;-56
2023/09/24 09:21:55;;;;;;;13.32;5.13;;;16.00;99.90;;;;;;5056133;28;20040;-56
2023/09/24 09:24:25;;;;;;;7.78;4.30;;;16.10;99.90;;;;;;5061004;28;20406;-55
2023/09/24 09:26:55;;;;;;;7.53;3.83;;;16.10;99.90;;;;;;5055736;28;20036;-58
2023/09/24 09:29:27;;;;;;;8.05;3.70;;;16.10;99.90;;;;;;5056506;28;20039;-55
2023/09/24 09:31:54;;;;;;;5.70;3.63;;;16.10;99.90;;;;;;5060139;28;20037;-56
2023/09/24 09:34:20;;;;;;;5.50;3.63;;;16.20;99.90;;;;;;5060556;28;20055;-58
2023/09/24 09:36:47;;;;;;;7.38;3.33;;;16.10;99.90;;;;;;5057794;28;20047;-58
2023/09/24 09:39:12;;;;;;;;;;;16.10;99.90;;;;;;5054904;28;20043;-58
2023/09/24 09:41:42;;;;;;;6.00;3.50;;;16.10;99.90;;;;;;5061955;28;19925;-57
2023/09/24 09:44:08;;;;;;;11.05;4.00;;;16.20;99.90;;;;;;5065097;28;20047;-58
2023/09/24 09:46:36;;;;;;;8.60;3.25;;;16.20;99.90;;;;;;5051272;28;20448;-57
2023/09/24 09:49:07;;;;;;;8.05;3.78;;;16.30;99.90;;;;;;5053465;28;20040;-57
2023/09/24 09:51:45;;;;;;;9.85;3.55;;;16.30;99.90;;;;;;5053349;28;20037;-56
2023/09/24 09:54:12;;;;;;;8.93;3.05;;;16.40;99.90;;;;;;5057089;28;20514;-58
2023/09/24 09:56:38;;;;;;;7.32;3.22;;;16.40;99.90;;;;;;5061457;28;20457;-55
2023/09/24 09:59:08;;;;;;;9.23;3.72;;;16.40;99.90;;;;;;5051006;28;20623;-58
2023/09/24 10:01:34;;;;;;;10.48;2.75;;;16.50;99.90;;;;;;5045483;28;20029;-54
2023/09/24 10:04:03;;;;;;;7.85;3.40;;;16.60;99.90;;;;;;5046515;28;20080;-58
2023/09/24 10:06:35;;;;;;;6.65;2.80;;;16.70;99.90;;;;;;5048162;28;20097;-58
2023/09/24 10:09:01;;;;;;;6.93;1.92;;;16.80;99.90;;;;;;5049942;28;20432;-58
2023/09/24 10:11:30;;;;;;;8.80;2.20;;;16.80;99.90;;;;;;5045521;28;20052;-58
2023/09/24 10:13:57;;;;;;;3.67;1.30;;;16.80;99.90;;;;;;5047650;28;20083;-58
2023/09/24 10:16:25;;;;;;;;;;;16.80;99.90;;;;;;5050031;28;20487;-58
2023/09/24 10:18:55;;;;;;;5.00;0.90;;;16.80;99.90;;;;;;5053682;28;19916;-58
2023/09/24 10:21:31;;;;;;;9.07;1.02;;;16.90;99.90;;;;;;5057561;28;20047;-57
2023/09/24 10:24:20;;;;;;;2.75;0.77;;;16.80;99.90;;;;;;5051618;28;20116;-58
2023/09/24 10:27:06;;;;;;;4.28;0.82;;;17.00;99.90;;;;;;5052117;28;20379;-59
2023/09/24 10:29:50;;;;;;;5.93;0.90;;;17.00;99.90;;;;;;5057554;28;20122;-57
2023/09/24 10:32:21;;;;;;;1.65;0.63;;;17.10;99.90;;;;;;5054387;28;20416;-58
2023/09/24 10:34:55;;;;;;;3.10;1.15;;;17.20;99.90;;;;;;5057679;28;20399;-58
2023/09/24 10:37:24;;;;;;;5.00;0.82;;;17.30;99.90;;;;;;5054549;28;20057;-58
2023/09/24 10:40:05;;;;;;;6.05;1.15;;;17.30;99.90;;;;;;5060092;28;20496;-56
2023/09/24 10:42:39;;;;;;;4.32;1.00;;;17.30;99.90;;;;;;5066952;28;20404;-58
2023/09/24 10:45:07;;;;;;;6.22;0.98;;;17.40;99.90;;;;;;5062910;28;20044;-58
2023/09/24 10:47:37;;;;;;;2.15;0.82;;;17.40;99.90;;;;;;5049339;28;20044;-58
2023/09/24 10:50:04;;;;;;;3.50;0.85;;;17.50;99.90;;;;;;5056764;28;20056;-58
2023/09/24 10:52:59;;;;;;;1.85;0.50;;;17.60;99.90;;;;;;5055276;28;20423;-58
2023/09/24 10:55:30;;;;;;;3.50;0.55;;;17.80;99.90;;;;;;5061772;28;20041;-57
2023/09/24 10:58:11;;;;;;;3.25;0.85;;;17.80;99.90;;;;;;5059767;28;20044;-58
2023/09/24 11:00:38;;;;;;;3.50;0.68;;;17.90;99.90;;;;;;5067634;28;20052;-56
2023/09/24 11:03:06;;;;;;;2.53;1.00;;;17.90;99.90;;;;;;5058838;28;20458;-58
2023/09/24 11:05:42;;;;;;;3.80;0.50;;;18.00;99.90;;;;;;5065478;28;20491;-58
2023/09/24 11:08:08;;;;;;;5.07;0.63;;;18.00;99.90;;;;;;5056354;28;20041;-58
2023/09/24 11:10:34;;;;;;;5.53;0.60;;;18.00;99.90;;;;;;5048787;28;20112;-58
2023/09/24 11:13:02;;;;;;;2.03;0.50;;;18.10;99.90;;;;;;5060176;28;20049;-58
2023/09/24 11:15:35;;;;;;;2.58;0.50;;;18.10;99.90;;;;;;5059534;28;20512;-57
2023/09/24 11:18:02;;;;;;;2.63;0.50;;;18.20;99.90;;;;;;5060702;28;20137;-58
2023/09/24 11:20:31;;;;;;;2.08;0.65;;;18.10;99.90;;;;;;5064873;28;20245;-58
2023/09/24 11:23:02;;;;;;;4.40;0.40;;;18.20;99.90;;;;;;5068666;28;20040;-58
2023/09/24 11:25:29;;;;;;;6.20;0.65;;;18.20;99.90;;;;;;5057091;28;20041;-57
2023/09/24 11:28:01;;;;;;;1.75;0.40;;;18.20;99.90;;;;;;5059846;28;20041;-59
2023/09/24 11:30:45;;;;;;;1.92;0.50;;;18.20;99.90;;;;;;5067378;28;20186;-58
2023/09/24 11:33:13;;;;;;;3.53;1.08;;;18.30;99.90;;;;;;5064662;28;20040;-59
2023/09/24 11:35:39;;;;;;;3.08;0.60;;;18.30;99.90;;;;;;5067042;28;20052;-58
2023/09/24 11:38:04;;;;;;;3.97;0.60;;;18.30;99.90;;;;;;5065918;28;20033;-59
2023/09/24 11:40:38;;;;;;;6.25;0.90;;;18.30;99.90;;;;;;5065589;28;20098;-58
2023/09/24 11:43:06;;;;;;;5.13;0.80;;;18.40;99.90;;;;;;5063680;28;20043;-58
2023/09/24 11:45:37;;;;;;;2.25;0.85;;;18.40;99.90;;;;;;5062811;28;20507;-58
2023/09/24 11:48:04;;;;;;;2.88;0.68;;;18.50;99.90;;;;;;5053103;28;20041;-57
2023/09/24 11:50:30;;;;;;;1.65;0.40;;;18.50;99.90;;;;;;5058428;28;20047;-55
2023/09/24 11:52:56;;;;;;;4.93;0.63;;;18.60;99.90;;;;;;5057322;28;20033;-56
2023/09/24 11:55:21;;;;;;;3.42;0.55;;;18.60;99.90;;;;;;5053344;28;20518;-55
2023/09/24 11:57:47;;;;;;;3.35;0.88;;;18.70;99.90;;;;;;5057821;28;20130;-56
2023/09/24 12:00:13;;;;;;;4.20;0.50;;;18.80;99.90;;;;;;5058346;28;20044;-58
2023/09/24 12:02:39;;;;;;;2.50;0.70;;;18.70;99.90;;;;;;5063976;28;20055;-56
2023/09/24 12:05:05;;;;;;;5.93;0.75;;;18.80;99.90;;;;;;5064612;28;20403;-56
2023/09/24 12:07:33;;;;;;;;;;;18.80;99.90;;;;;;5065123;28;20472;-57
2023/09/24 12:10:01;;;;;;;6.07;0.77;;;18.80;99.90;;;;;;5067676;28;20314;-57
2023/09/24 12:12:26;;;;;;;5.43;0.73;;;18.80;99.90;;;;;;5068132;28;20079;-59
2023/09/24 12:14:52;;;;;;;1.40;0.50;;;18.80;99.90;;;;;;5056904;28;20286;-56
2023/09/24 12:17:19;;;;;;;3.85;0.40;;;18.90;99.90;;;;;;5052542;28;20044;-58
2023/09/24 12:19:45;;;;;;;1.90;0.43;;;18.90;99.90;;;;;;5061718;28;20616;-58
2023/09/24 12:22:12;;;;;;;1.42;0.60;;;19.00;99.90;;;;;;5062250;28;20033;-58
2023/09/24 12:24:37;;;;;;;;;;;19.10;99.90;;;;;;5064992;28;20044;-59
2023/09/24 12:27:03;;;;;;;3.33;0.50;;;19.20;99.90;;;;;;5062617;28;19920;-58
2023/09/24 12:29:30;;;;;;;3.50;0.68;;;19.20;99.90;;;;;;5057245;28;20025;-58
2023/09/24 12:31:56;;;;;;;3.28;0.47;;;19.30;99.90;;;;;;5060874;28;20776;-58
2023/09/24 12:34:22;;;;;;;4.57;0.68;;;19.30;99.90;;;;;;5063218;28;20075;-57
2023/09/24 12:36:47;;;;;;;3.67;0.50;;;19.20;99.90;;;;;;5062341;28;20056;-58
2023/09/24 12:39:16;;;;;;;3.70;0.38;;;19.30;99.90;;;;;;5058651;28;20579;-58
2023/09/24 12:41:42;;;;;;;4.15;0.30;;;19.20;99.10;;;;;;5062737;28;20229;-59
2023/09/24 12:44:07;;;;;;;2.33;0.68;;;19.20;99.80;;;;;;5058386;28;20024;-58
2023/09/24 12:46:33;;;;;;;;;;;19.20;99.30;;;;;;5060476;28;20037;-58
2023/09/24 12:48:58;;;;;;;3.78;0.50;;;19.20;98.60;;;;;;5056768;28;19920;-57